KSTK/STK METAR and TAF weather

Enter ICAO airport designator
Station Type Date Time Source
KSTK METAR 2020/09/18 06:35 UTC NOAA

KSTK 180635Z AUTO 03007KT 7SM CLR 13/10 A3023 RMK AO2


Station Type Date Time Source
KSTK Decoded METAR 2020/09/18 06:35 UTC NOAA

Station name not available
Sep 18, 2020 - 02:35 AM EDT / 2020.09.18 0635 UTC
Wind: from the NNE (030 degrees) at 8 MPH (7 KT):0
Visibility: 7 mile(s):0
Sky conditions: clear
Temperature: 55 F (13 C)
Dew Point: 50 F (10 C)
Relative Humidity: 81%
Pressure (altimeter): 30.23 in. Hg (1023 hPa)
ob: KSTK 180635Z AUTO 03007KT 7SM CLR 13/10 A3023 RMK AO2
cycle: 6

Station Type Date Time Source
KSTK TAF UTC NOAA

Error!

Example: see airport list